Time;durP1;ratioP1;P1;durP2;ratioP2;P2;SDS_P1;SDS_P2;PMS_P1;PMS_P2;Temp;Humidity;BMP_temperature;BMP_pressure;BME280_temperature;BME280_humidity;BME280_pressure;Samples;Min_cycle;Max_cycle;Signal;HPM_P1;HPM_P2
2020/12/22 00:10:46;;;;;;;0.98;0.30;;;14.40;90.10;;;;;;3998303;36;20101;-90
2020/12/22 00:29:16;;;;;;;0.30;0.00;;;14.50;90.10;;;;;;4128354;34;20062;-89
2020/12/22 00:41:42;;;;;;;;;;;;;;;;;;;;;
2020/12/22 00:44:36;;;;;;;4.65;0.10;;;14.40;90.20;;;;;;4105291;35;20483;-90
2020/12/22 00:53:27;;;;;;;0.20;0.00;;;14.40;90.20;;;;;;4065516;28;20126;-92
2020/12/22 00:55:54;;;;;;;0.00;0.00;;;14.30;90.30;;;;;;4098003;35;20516;-91
2020/12/22 00:58:20;;;;;;;0.00;0.00;;;14.30;90.30;;;;;;4086474;35;20066;-89
2020/12/22 01:00:49;;;;;;;0.00;0.00;;;14.40;90.40;;;;;;4096952;27;20593;-89
2020/12/22 01:03:19;;;;;;;5.72;0.75;;;14.30;90.40;;;;;;4088827;35;20071;-88
2020/12/22 01:05:51;;;;;;;0.00;0.00;;;14.30;90.40;;;;;;4099156;27;20086;-89
2020/12/22 01:08:18;;;;;;;0.00;0.00;;;14.30;90.40;;;;;;4072338;35;20553;-88
2020/12/22 01:10:44;;;;;;;0.00;0.00;;;14.30;90.40;;;;;;4074887;27;20222;-90
2020/12/22 01:13:14;;;;;;;0.00;0.00;;;14.30;90.40;;;;;;4083365;27;20518;-89
2020/12/22 01:18:21;;;;;;;0.13;0.00;;;14.30;90.40;;;;;;4146635;27;20077;-91
2020/12/22 01:20:50;;;;;;;0.00;0.00;;;14.30;90.40;;;;;;4178115;27;20085;-89
2020/12/22 01:23:20;;;;;;;0.00;0.00;;;14.30;90.50;;;;;;4100835;34;20066;-89
2020/12/22 01:25:46;;;;;;;0.00;0.00;;;14.30;90.50;;;;;;4131388;27;20400;-89
2020/12/22 01:28:12;;;;;;;0.00;0.00;;;14.30;90.50;;;;;;4106741;27;20263;-90
2020/12/22 01:30:39;;;;;;;0.00;0.00;;;14.30;90.50;;;;;;4100613;28;20059;-88
2020/12/22 01:33:20;;;;;;;0.00;0.00;;;14.20;90.40;;;;;;4098842;34;20082;-90
2020/12/22 01:35:47;;;;;;;0.00;0.00;;;14.30;90.50;;;;;;4124656;27;20071;-88
2020/12/22 01:38:30;;;;;;;0.00;0.00;;;14.30;90.50;;;;;;4101239;34;20078;-89
2020/12/22 01:41:03;;;;;;;0.10;0.10;;;14.30;90.50;;;;;;4115631;34;20062;-89
2020/12/22 01:43:29;;;;;;;0.00;0.00;;;14.20;90.50;;;;;;4122637;27;20347;-89
2020/12/22 01:45:55;;;;;;;0.10;0.05;;;14.20;90.50;;;;;;4115625;27;20071;-89
2020/12/22 01:48:28;;;;;;;6.82;0.10;;;14.30;90.50;;;;;;4123312;27;20082;-89
2020/12/22 01:50:55;;;;;;;0.00;0.00;;;14.20;90.50;;;;;;4095056;35;20071;-89
2020/12/22 01:53:27;;;;;;;0.00;0.00;;;14.20;90.50;;;;;;4083761;27;20076;-89
2020/12/22 01:56:02;;;;;;;0.03;0.00;;;14.30;90.50;;;;;;4069337;27;20081;-90
2020/12/22 01:58:34;;;;;;;0.70;0.22;;;14.20;90.50;;;;;;4074514;27;20428;-89
2020/12/22 02:01:06;;;;;;;0.00;0.00;;;14.20;90.50;;;;;;4057765;27;20112;-89
2020/12/22 02:03:40;;;;;;;0.00;0.00;;;14.30;90.50;;;;;;4047909;35;20084;-91
2020/12/22 02:06:07;;;;;;;0.00;0.00;;;14.30;90.50;;;;;;4067058;35;20124;-89
2020/12/22 02:08:33;;;;;;;0.00;0.00;;;14.30;90.50;;;;;;4065135;27;20080;-89
2020/12/22 02:11:03;;;;;;;2.80;0.30;;;14.30;90.50;;;;;;4161434;27;20074;-88
2020/12/22 02:13:29;;;;;;;0.08;0.00;;;14.30;90.50;;;;;;4142305;27;20047;-91
2020/12/22 02:15:56;;;;;;;0.00;0.00;;;14.30;90.50;;;;;;4115064;27;20066;-90
2020/12/22 02:18:31;;;;;;;0.00;0.00;;;14.30;90.50;;;;;;4117355;27;20079;-88
2020/12/22 02:21:04;;;;;;;0.00;0.00;;;14.40;90.50;;;;;;4115679;27;20067;-89
2020/12/22 02:23:33;;;;;;;8.88;0.10;;;14.40;90.40;;;;;;4109451;27;20079;-89
2020/12/22 02:26:00;;;;;;;0.00;0.00;;;14.30;90.40;;;;;;4098822;35;20083;-89
2020/12/22 02:28:35;;;;;;;0.00;0.00;;;14.40;90.40;;;;;;4104804;34;20039;-90
2020/12/22 02:37:02;;;;;;;0.30;0.10;;;14.40;90.70;;;;;;4138393;27;20481;-89
2020/12/22 02:39:31;;;;;;;0.00;0.00;;;14.40;90.30;;;;;;4113603;34;20082;-89
2020/12/22 02:42:00;;;;;;;11.80;0.30;;;14.40;90.30;;;;;;4117716;34;20063;-89
2020/12/22 02:44:27;;;;;;;0.00;0.00;;;14.40;90.30;;;;;;4125487;35;20071;-89
2020/12/22 02:46:53;;;;;;;0.80;0.30;;;14.50;90.30;;;;;;4141041;27;20079;-90
2020/12/22 02:49:23;;;;;;;0.00;0.00;;;14.50;90.30;;;;;;4098811;35;20459;-89
2020/12/22 02:51:52;;;;;;;0.00;0.00;;;14.50;90.60;;;;;;4091206;27;20048;-90
2020/12/22 02:56:56;;;;;;;0.30;0.30;;;14.50;90.20;;;;;;4139523;27;20391;-89
2020/12/22 02:59:23;;;;;;;0.32;0.20;;;14.50;90.20;;;;;;4071562;27;20102;-91
2020/12/22 03:05:43;;;;;;;0.00;0.00;;;14.50;90.20;;;;;;4048975;35;20409;-91
2020/12/22 03:08:22;;;;;;;;;;;;;;;;;;;;;
2020/12/22 03:11:30;;;;;;;0.00;0.00;;;14.50;90.10;;;;;;4051675;35;20061;-91
2020/12/22 03:24:31;;;;;;;0.00;0.00;;;14.40;90.20;;;;;;4143289;34;20031;-87
2020/12/22 03:27:24;;;;;;;0.00;0.00;;;14.40;90.20;;;;;;4123439;27;20079;-92
2020/12/22 03:29:53;;;;;;;1.63;0.22;;;14.40;90.20;;;;;;4123740;35;20074;-90
2020/12/22 03:32:22;;;;;;;0.00;0.00;;;14.40;90.30;;;;;;4116655;27;20155;-91
2020/12/22 03:38:39;;;;;;;0.60;0.20;;;14.40;90.30;;;;;;4055920;27;20100;-90
2020/12/22 03:41:15;;;;;;;;;;;;;;;;;;;;;
2020/12/22 03:43:53;;;;;;;0.00;0.00;;;14.40;90.40;;;;;;4028547;35;20088;-88
2020/12/22 03:46:19;;;;;;;0.00;0.00;;;14.30;90.40;;;;;;4023293;28;20054;-87
2020/12/22 03:48:54;;;;;;;9.70;0.10;;;14.30;90.40;;;;;;4066911;28;20146;-89
2020/12/22 03:53:56;;;;;;;0.00;0.00;;;14.20;90.50;;;;;;4147325;27;20074;-89
2020/12/22 03:56:22;;;;;;;0.00;0.00;;;14.20;90.50;;;;;;4116664;34;20071;-89
2020/12/22 04:04:23;;;;;;;0.10;0.00;;;14.20;90.50;;;;;;4149931;27;20078;-89
2020/12/22 04:07:00;;;;;;;0.00;0.00;;;14.30;90.50;;;;;;4097055;35;20067;-89
2020/12/22 04:09:49;;;;;;;0.00;0.00;;;14.30;90.50;;;;;;4095333;35;20608;-89
2020/12/22 04:14:53;;;;;;;0.00;0.00;;;14.30;90.40;;;;;;4136627;34;20055;-88
2020/12/22 04:17:19;;;;;;;0.00;0.00;;;14.30;90.40;;;;;;4131207;27;20469;-90
2020/12/22 04:20:00;;;;;;;0.10;0.00;;;14.30;90.40;;;;;;4104078;34;20067;-88
2020/12/22 04:22:29;;;;;;;;;;;14.40;90.40;;;;;;4123771;27;20392;-89
2020/12/22 04:25:14;;;;;;;0.00;0.00;;;14.30;90.30;;;;;;4110282;35;20281;-89
2020/12/22 04:27:52;;;;;;;0.95;0.43;;;14.40;90.30;;;;;;4099661;27;20079;-90
2020/12/22 04:30:21;;;;;;;0.00;0.00;;;14.40;90.30;;;;;;4116486;27;20063;-89
2020/12/22 04:32:50;;;;;;;0.00;0.00;;;14.40;90.30;;;;;;4110696;35;20431;-91
2020/12/22 04:35:43;;;;;;;0.00;0.00;;;14.40;90.30;;;;;;4103444;27;20688;-90
2020/12/22 04:38:12;;;;;;;0.00;0.00;;;14.40;90.30;;;;;;4046695;27;20069;-88
2020/12/22 04:40:39;;;;;;;0.00;0.00;;;14.40;90.20;;;;;;4025213;35;20050;-90
2020/12/22 04:43:14;;;;;;;0.00;0.00;;;14.50;90.30;;;;;;4046290;35;20095;-89
2020/12/22 04:45:40;;;;;;;0.00;0.00;;;14.40;90.20;;;;;;4074558;27;20078;-90
2020/12/22 04:48:07;;;;;;;0.00;0.00;;;14.40;90.20;;;;;;4101376;35;20102;-89
2020/12/22 04:51:06;;;;;;;0.00;0.00;;;14.40;90.30;;;;;;4091644;35;20208;-88
2020/12/22 04:53:32;;;;;;;5.10;0.28;;;14.40;90.30;;;;;;4089384;27;20082;-86
2020/12/22 04:56:06;;;;;;;0.00;0.00;;;14.40;90.30;;;;;;4080902;35;20640;-88
2020/12/22 04:58:32;;;;;;;0.00;0.00;;;14.40;90.40;;;;;;4067197;35;20086;-88
2020/12/22 05:01:25;;;;;;;0.75;0.52;;;14.40;90.40;;;;;;4068428;34;20118;-88
2020/12/22 05:04:04;;;;;;;2.83;0.17;;;14.40;90.40;;;;;;4107103;27;20047;-87
2020/12/22 05:06:30;;;;;;;0.00;0.00;;;14.40;90.40;;;;;;4154761;27;20086;-88
2020/12/22 05:08:57;;;;;;;0.00;0.00;;;14.40;90.40;;;;;;4137565;27;20283;-88
2020/12/22 05:11:29;;;;;;;0.17;0.15;;;14.40;90.40;;;;;;4141845;27;20485;-87
2020/12/22 05:13:58;;;;;;;0.00;0.00;;;14.40;90.50;;;;;;4135036;27;20114;-88
2020/12/22 05:16:37;;;;;;;0.00;0.00;;;14.40;90.50;;;;;;4122713;27;20082;-87
2020/12/22 05:19:04;;;;;;;0.00;0.00;;;14.40;90.50;;;;;;4109993;34;20069;-87
2020/12/22 05:21:53;;;;;;;0.00;0.00;;;14.40;90.50;;;;;;4134033;27;20082;-87
2020/12/22 05:24:20;;;;;;;0.00;0.00;;;14.40;90.50;;;;;;4089895;27;20079;-87
2020/12/22 05:26:49;;;;;;;0.00;0.00;;;14.40;90.50;;;;;;4067375;35;20119;-87
2020/12/22 05:29:21;;;;;;;0.00;0.00;;;14.30;90.50;;;;;;4098657;27;20085;-86
2020/12/22 05:31:53;;;;;;;0.00;0.00;;;14.40;90.60;;;;;;4135208;27;20353;-88
2020/12/22 05:34:29;;;;;;;0.00;0.00;;;14.30;90.60;;;;;;4141561;27;20120;-87
2020/12/22 05:37:08;;;;;;;0.00;0.00;;;14.40;90.60;;;;;;4138686;27;20087;-88
2020/12/22 05:39:43;;;;;;;5.65;0.10;;;14.30;90.60;;;;;;4106338;35;20467;-89
2020/12/22 05:42:16;;;;;;;0.00;0.00;;;14.30;90.60;;;;;;4120005;34;20059;-87
2020/12/22 05:47:15;;;;;;;0.00;0.00;;;14.30;90.60;;;;;;4179408;27;21013;-88
2020/12/22 05:49:56;;;;;;;;;;;14.30;90.60;;;;;;3033447;27;41329639;-89
2020/12/22 05:52:27;;;;;;;0.00;0.00;;;14.30;90.60;;;;;;4121893;34;19998;-88
2020/12/22 05:55:00;;;;;;;0.00;0.00;;;14.30;90.60;;;;;;4116962;27;20114;-87
2020/12/22 05:57:34;;;;;;;0.00;0.00;;;14.30;90.60;;;;;;4105407;35;20075;-87
2020/12/22 06:00:12;;;;;;;0.00;0.00;;;14.30;90.60;;;;;;4110155;27;20086;-88
2020/12/22 06:02:47;;;;;;;0.00;0.00;;;14.30;90.60;;;;;;4125947;27;20050;-88
2020/12/22 06:05:13;;;;;;;0.00;0.00;;;14.30;90.60;;;;;;4162954;27;20040;-88
2020/12/22 06:07:40;;;;;;;0.00;0.00;;;14.30;90.60;;;;;;4121553;27;20513;-86
2020/12/22 06:10:06;;;;;;;0.00;0.00;;;14.30;90.60;;;;;;4115023;35;20422;-86
2020/12/22 06:12:36;;;;;;;0.00;0.00;;;14.40;90.60;;;;;;4115361;35;20475;-87
2020/12/22 06:15:02;;;;;;;0.00;0.00;;;14.30;90.60;;;;;;4120513;27;20368;-86
2020/12/22 06:17:28;;;;;;;0.00;0.00;;;14.30;90.60;;;;;;4095001;27;20079;-87
2020/12/22 06:19:55;;;;;;;0.00;0.00;;;14.40;90.60;;;;;;4092714;35;20087;-86
2020/12/22 06:22:21;;;;;;;0.00;0.00;;;14.40;90.60;;;;;;4103739;35;20086;-88
2020/12/22 06:24:52;;;;;;;0.00;0.00;;;14.40;90.60;;;;;;4092467;35;20403;-88
2020/12/22 06:27:18;;;;;;;0.00;0.00;;;14.40;90.60;;;;;;4109089;27;20099;-87
2020/12/22 06:29:45;;;;;;;0.00;0.00;;;14.40;90.60;;;;;;4115178;35;20120;-86
2020/12/22 06:32:27;;;;;;;0.03;0.03;;;14.40;90.60;;;;;;4117872;27;20067;-87
2020/12/22 06:34:53;;;;;;;;;;;14.40;90.60;;;;;;4127438;27;20074;-88
2020/12/22 06:37:42;;;;;;;0.00;0.00;;;14.40;90.60;;;;;;4115745;35;20398;-87
2020/12/22 06:40:09;;;;;;;0.00;0.00;;;14.40;90.60;;;;;;4118276;27;20078;-88
2020/12/22 06:42:43;;;;;;;0.00;0.00;;;14.40;90.60;;;;;;4093815;35;20092;-87
2020/12/22 06:45:22;;;;;;;0.00;0.00;;;14.40;90.60;;;;;;4120528;27;20078;-86
2020/12/22 06:47:49;;;;;;;0.00;0.00;;;14.40;90.60;;;;;;4116104;35;20086;-86
2020/12/22 06:50:44;;;;;;;0.00;0.00;;;14.40;90.60;;;;;;4105653;27;20103;-87
2020/12/22 06:53:33;;;;;;;0.00;0.00;;;14.40;90.60;;;;;;4124608;27;20075;-87
2020/12/22 06:56:00;;;;;;;0.00;0.00;;;14.40;90.60;;;;;;4106319;27;20083;-88
2020/12/22 06:58:52;;;;;;;0.00;0.00;;;14.40;90.60;;;;;;4098389;27;20082;-89
2020/12/22 07:01:25;;;;;;;0.00;0.00;;;14.40;90.60;;;;;;4114410;27;20621;-87
2020/12/22 07:03:58;;;;;;;0.00;0.00;;;14.40;90.60;;;;;;4118324;34;20089;-89
2020/12/22 07:06:46;;;;;;;0.00;0.00;;;14.40;90.60;;;;;;4095313;35;20119;-88
2020/12/22 07:09:45;;;;;;;0.00;0.00;;;14.50;90.60;;;;;;4117676;27;20082;-89
2020/12/22 07:12:12;;;;;;;0.00;0.00;;;14.50;90.60;;;;;;4094757;35;20094;-86
2020/12/22 07:14:50;;;;;;;0.00;0.00;;;14.50;90.60;;;;;;4117855;27;20461;-88
2020/12/22 07:17:20;;;;;;;0.00;0.00;;;14.50;90.60;;;;;;4103997;27;20407;-86
2020/12/22 07:19:54;;;;;;;0.00;0.00;;;14.50;90.60;;;;;;4102292;35;20090;-85
2020/12/22 07:22:24;;;;;;;0.00;0.00;;;14.50;90.60;;;;;;4114523;27;20451;-87
2020/12/22 07:24:50;;;;;;;0.00;0.00;;;14.60;91.00;;;;;;4119122;27;20050;-85
2020/12/22 07:27:16;;;;;;;0.00;0.00;;;14.50;90.60;;;;;;4161104;27;20071;-86
2020/12/22 07:29:43;;;;;;;0.00;0.00;;;14.60;90.60;;;;;;4179520;27;20075;-86
2020/12/22 07:32:12;;;;;;;0.00;0.00;;;14.60;90.60;;;;;;4118747;27;20070;-87
2020/12/22 07:34:42;;;;;;;0.00;0.00;;;14.60;90.70;;;;;;4125053;27;20422;-87
2020/12/22 07:37:21;;;;;;;1.98;0.10;;;14.60;90.70;;;;;;4138974;27;20067;-86
2020/12/22 07:39:47;;;;;;;8.00;0.10;;;14.60;90.70;;;;;;4124864;35;20083;-86
2020/12/22 07:42:15;;;;;;;0.00;0.00;;;14.60;90.70;;;;;;4125095;34;20222;-85
2020/12/22 07:44:47;;;;;;;0.00;0.00;;;14.60;90.70;;;;;;4125141;34;20105;-87
2020/12/22 07:47:17;;;;;;;0.00;0.00;;;14.60;90.70;;;;;;4143999;27;20097;-86
2020/12/22 07:49:43;;;;;;;0.10;0.08;;;14.60;90.70;;;;;;4113758;27;20082;-87
2020/12/22 07:52:14;;;;;;;3.83;0.10;;;14.60;90.70;;;;;;4124980;35;20087;-86
2020/12/22 07:54:57;;;;;;;0.00;0.00;;;14.60;90.70;;;;;;4113814;35;20078;-85
2020/12/22 07:57:23;;;;;;;0.00;0.00;;;14.60;90.70;;;;;;4129365;27;20423;-87
2020/12/22 07:59:49;;;;;;;0.00;0.00;;;14.60;90.70;;;;;;4112006;35;20099;-86
2020/12/22 08:02:37;;;;;;;0.00;0.00;;;14.60;90.70;;;;;;4112952;27;20522;-87
2020/12/22 08:05:20;;;;;;;0.00;0.00;;;14.60;90.70;;;;;;4118017;27;20118;-87
2020/12/22 08:07:59;;;;;;;0.00;0.00;;;14.70;90.70;;;;;;4121948;27;20079;-86
2020/12/22 08:10:25;;;;;;;0.00;0.00;;;14.60;90.70;;;;;;4116026;35;20079;-88
2020/12/22 08:12:54;;;;;;;0.00;0.00;;;14.60;90.70;;;;;;4096793;27;20151;-85
2020/12/22 08:15:27;;;;;;;0.00;0.00;;;14.60;90.70;;;;;;4105673;27;20082;-86
2020/12/22 08:17:55;;;;;;;0.00;0.00;;;14.60;90.70;;;;;;4115969;35;20110;-86
2020/12/22 08:20:29;;;;;;;1.45;0.15;;;14.60;90.70;;;;;;4104798;35;20078;-87
2020/12/22 08:22:56;;;;;;;0.00;0.00;;;14.60;90.70;;;;;;4106372;35;20110;-85
2020/12/22 08:25:23;;;;;;;0.00;0.00;;;14.60;90.70;;;;;;4114810;35;20089;-85
2020/12/22 08:27:54;;;;;;;0.30;0.10;;;14.60;90.70;;;;;;4117372;34;20091;-86
2020/12/22 08:30:21;;;;;;;0.08;0.05;;;14.60;90.70;;;;;;4116621;27;20424;-84
2020/12/22 08:32:53;;;;;;;0.00;0.00;;;14.60;90.70;;;;;;4123619;27;20067;-86
2020/12/22 08:35:25;;;;;;;0.00;0.00;;;14.60;90.70;;;;;;4121299;35;20095;-85
2020/12/22 08:37:51;;;;;;;0.00;0.00;;;14.70;90.80;;;;;;4118380;35;20070;-85
2020/12/22 08:40:32;;;;;;;0.00;0.00;;;14.70;90.80;;;;;;4118928;35;20121;-85
2020/12/22 08:43:03;;;;;;;0.00;0.00;;;14.70;90.80;;;;;;4121270;35;20063;-84
2020/12/22 08:45:31;;;;;;;0.00;0.00;;;14.70;90.80;;;;;;4133738;27;20373;-86
2020/12/22 08:48:01;;;;;;;0.00;0.00;;;14.70;90.70;;;;;;4094472;35;20086;-85
2020/12/22 08:50:30;;;;;;;1.85;0.25;;;14.70;90.80;;;;;;4116628;35;20067;-86
2020/12/22 08:52:57;;;;;;;0.00;0.00;;;14.70;90.80;;;;;;4118214;27;20093;-84
2020/12/22 08:55:26;;;;;;;0.00;0.00;;;14.70;90.80;;;;;;4123759;27;20071;-83
2020/12/22 08:58:04;;;;;;;0.00;0.00;;;14.70;90.70;;;;;;4117251;35;20097;-85
2020/12/22 09:00:45;;;;;;;0.10;0.00;;;14.70;90.90;;;;;;4118930;27;20086;-86
2020/12/22 09:03:44;;;;;;;0.00;0.00;;;14.80;90.70;;;;;;4113243;35;20082;-86
2020/12/22 09:06:13;;;;;;;0.00;0.00;;;14.80;90.70;;;;;;4116168;35;20069;-86
2020/12/22 09:08:58;;;;;;;0.00;0.00;;;14.80;90.70;;;;;;4106817;27;20075;-86
2020/12/22 09:11:35;;;;;;;0.00;0.00;;;14.80;90.70;;;;;;4113622;35;20232;-87
2020/12/22 09:14:11;;;;;;;0.00;0.00;;;14.80;90.70;;;;;;4115880;27;20098;-86
2020/12/22 09:16:56;;;;;;;0.00;0.00;;;14.80;90.70;;;;;;4117018;27;20150;-85
2020/12/22 09:19:49;;;;;;;0.00;0.00;;;14.80;90.70;;;;;;4123158;27;20075;-85
2020/12/22 09:22:28;;;;;;;1.98;0.15;;;14.80;90.70;;;;;;4109726;35;20454;-86
2020/12/22 09:24:59;;;;;;;0.00;0.00;;;14.90;90.60;;;;;;4102455;35;20075;-82
2020/12/22 09:27:29;;;;;;;0.00;0.00;;;15.00;90.60;;;;;;4105107;35;20083;-84
2020/12/22 09:29:56;;;;;;;0.00;0.00;;;14.90;90.50;;;;;;4127566;27;20075;-83
2020/12/22 09:32:22;;;;;;;0.00;0.00;;;14.90;90.50;;;;;;4120396;27;20085;-84
2020/12/22 09:34:49;;;;;;;0.10;0.00;;;15.00;90.60;;;;;;4123342;35;20092;-85
2020/12/22 09:37:15;;;;;;;0.00;0.00;;;15.00;90.60;;;;;;4098302;35;20078;-85
2020/12/22 09:39:42;;;;;;;0.00;0.00;;;15.00;90.60;;;;;;4117654;35;20462;-84
2020/12/22 09:42:08;;;;;;;0.00;0.00;;;15.00;90.70;;;;;;4122104;27;20075;-84
2020/12/22 09:44:35;;;;;;;0.00;0.00;;;14.90;90.70;;;;;;4116809;35;20086;-84
2020/12/22 09:47:08;;;;;;;0.98;0.05;;;15.00;90.70;;;;;;4117020;27;20083;-84
2020/12/22 09:49:34;;;;;;;0.00;0.00;;;14.90;90.70;;;;;;4114183;27;20232;-85
2020/12/22 09:52:06;;;;;;;0.00;0.00;;;15.00;90.70;;;;;;4124328;35;20102;-85
2020/12/22 09:54:33;;;;;;;0.00;0.00;;;15.00;90.70;;;;;;4135947;27;20094;-84
2020/12/22 09:56:59;;;;;;;0.00;0.00;;;15.00;90.70;;;;;;4119185;35;20376;-84
2020/12/22 09:59:25;;;;;;;0.15;0.00;;;15.00;90.70;;;;;;4106790;35;20094;-87
2020/12/22 10:01:52;;;;;;;0.00;0.00;;;15.00;90.70;;;;;;4118162;27;20113;-84
2020/12/22 10:04:18;;;;;;;0.00;0.00;;;15.00;90.70;;;;;;4120435;27;20082;-84
2020/12/22 10:06:45;;;;;;;0.00;0.00;;;15.10;90.70;;;;;;4119284;35;20087;-85
2020/12/22 10:09:11;;;;;;;0.00;0.00;;;15.10;90.70;;;;;;4106682;27;20075;-83
2020/12/22 10:11:38;;;;;;;0.00;0.00;;;15.10;90.70;;;;;;4108740;27;20471;-83
2020/12/22 10:14:04;;;;;;;0.00;0.00;;;15.10;90.60;;;;;;4120313;27;20113;-84
2020/12/22 10:16:31;;;;;;;0.00;0.00;;;15.20;90.60;;;;;;4117941;27;20094;-83
2020/12/22 10:18:57;;;;;;;0.00;0.00;;;15.30;90.50;;;;;;4117965;35;20071;-84
2020/12/22 10:21:24;;;;;;;0.00;0.00;;;15.30;90.50;;;;;;4119493;35;20087;-83
2020/12/22 10:23:51;;;;;;;0.00;0.00;;;15.40;90.40;;;;;;4116923;35;20086;-83
2020/12/22 10:26:19;;;;;;;1.17;0.47;;;15.40;90.40;;;;;;4112394;27;20129;-85
2020/12/22 10:28:46;;;;;;;1.27;0.32;;;15.40;90.40;;;;;;4119552;27;20381;-83
2020/12/22 10:31:13;;;;;;;0.00;0.00;;;15.40;90.30;;;;;;4106119;27;20079;-85
2020/12/22 10:33:40;;;;;;;0.00;0.00;;;15.50;90.30;;;;;;4119218;27;20416;-84
2020/12/22 10:36:07;;;;;;;0.00;0.00;;;15.60;90.30;;;;;;4115749;35;20062;-85
2020/12/22 10:38:33;;;;;;;0.00;0.00;;;15.60;90.20;;;;;;4119005;35;20310;-85
2020/12/22 10:41:02;;;;;;;0.00;0.00;;;15.70;90.20;;;;;;4115116;35;20082;-86
2020/12/22 10:43:28;;;;;;;0.00;0.00;;;15.80;90.10;;;;;;4121608;27;20071;-83
2020/12/22 10:45:59;;;;;;;0.00;0.00;;;15.80;90.10;;;;;;4116322;27;20319;-85
2020/12/22 10:48:25;;;;;;;0.00;0.00;;;15.80;90.30;;;;;;4117546;35;20534;-86
2020/12/22 10:50:52;;;;;;;0.00;0.00;;;15.80;90.10;;;;;;4094638;35;20090;-86
2020/12/22 10:53:18;;;;;;;0.00;0.00;;;15.80;90.10;;;;;;4087434;27;20384;-86
2020/12/22 10:55:52;;;;;;;0.00;0.00;;;15.80;90.10;;;;;;4093974;35;20387;-85
2020/12/22 10:58:18;;;;;;;0.10;0.00;;;15.80;90.20;;;;;;4083800;35;20548;-88
2020/12/22 11:00:49;;;;;;;0.75;0.13;;;15.70;90.20;;;;;;4094299;28;20062;-85
2020/12/22 11:03:21;;;;;;;0.10;0.10;;;15.80;90.30;;;;;;4103313;35;20083;-85
2020/12/22 11:06:08;;;;;;;0.00;0.00;;;15.70;90.30;;;;;;4125401;27;20071;-85
2020/12/22 11:08:35;;;;;;;0.00;0.00;;;15.70;90.40;;;;;;4109893;27;20086;-85
2020/12/22 11:11:14;;;;;;;0.00;0.00;;;15.70;90.40;;;;;;4106107;35;20075;-87
2020/12/22 11:13:40;;;;;;;0.00;0.00;;;15.60;90.40;;;;;;4111727;27;20092;-86
2020/12/22 11:16:07;;;;;;;4.10;0.15;;;15.60;90.50;;;;;;4106362;27;20086;-86
2020/12/22 11:18:42;;;;;;;0.10;0.00;;;15.60;90.50;;;;;;4083368;35;20067;-86
2020/12/22 11:21:15;;;;;;;0.00;0.00;;;15.70;90.90;;;;;;4107404;35;20067;-86
2020/12/22 11:23:50;;;;;;;0.00;0.00;;;15.70;90.50;;;;;;4130880;27;20074;-85
2020/12/22 11:26:21;;;;;;;0.00;0.00;;;15.70;90.50;;;;;;4106448;35;20082;-86
2020/12/22 11:28:48;;;;;;;0.00;0.00;;;15.80;90.40;;;;;;4116095;27;20240;-87
2020/12/22 11:31:14;;;;;;;0.00;0.00;;;15.90;90.30;;;;;;4104046;27;20103;-85
2020/12/22 11:33:40;;;;;;;0.00;0.00;;;15.90;90.20;;;;;;4109582;27;20110;-86
2020/12/22 11:36:18;;;;;;;0.40;0.20;;;16.00;90.20;;;;;;4103957;35;20086;-85
2020/12/22 11:38:44;;;;;;;0.20;0.20;;;16.00;90.20;;;;;;4103457;35;20098;-85
2020/12/22 11:41:11;;;;;;;0.00;0.00;;;16.00;90.20;;;;;;4094919;27;20082;-86
2020/12/22 11:43:37;;;;;;;0.05;0.00;;;16.00;90.20;;;;;;4109314;27;20086;-85
2020/12/22 11:46:05;;;;;;;0.00;0.00;;;16.00;90.10;;;;;;4120506;27;20078;-87
2020/12/22 11:48:32;;;;;;;0.00;0.00;;;16.00;90.10;;;;;;4094027;27;20089;-86
2020/12/22 11:50:58;;;;;;;0.00;0.00;;;16.10;90.20;;;;;;4104755;27;20086;-86
2020/12/22 11:53:24;;;;;;;10.77;0.10;;;16.00;90.20;;;;;;4119016;27;20079;-86
2020/12/22 11:55:52;;;;;;;0.00;0.00;;;16.00;90.20;;;;;;4092663;27;20086;-86
2020/12/22 11:58:19;;;;;;;0.00;0.00;;;16.00;90.30;;;;;;4119527;27;20079;-85
2020/12/22 12:00:45;;;;;;;0.00;0.00;;;15.90;90.30;;;;;;4108597;27;20486;-87
2020/12/22 12:03:12;;;;;;;0.32;0.10;;;15.90;90.40;;;;;;4115881;35;20523;-85
2020/12/22 12:05:38;;;;;;;0.03;0.00;;;15.90;90.40;;;;;;4116501;35;20075;-85
2020/12/22 12:08:04;;;;;;;0.00;0.00;;;15.90;90.40;;;;;;4092960;35;20447;-85
2020/12/22 12:10:31;;;;;;;0.10;0.00;;;15.80;90.40;;;;;;4104586;35;20504;-86
2020/12/22 12:12:57;;;;;;;0.25;0.20;;;15.90;90.50;;;;;;4105863;35;20091;-85
2020/12/22 12:15:32;;;;;;;0.00;0.00;;;15.90;90.50;;;;;;4106244;27;20422;-86
2020/12/22 12:18:04;;;;;;;0.00;0.00;;;15.90;90.50;;;;;;4123236;27;20478;-85
2020/12/22 12:20:30;;;;;;;0.00;0.00;;;15.80;90.50;;;;;;4106207;27;20139;-85
2020/12/22 12:23:03;;;;;;;0.00;0.00;;;15.80;90.50;;;;;;4121559;27;20079;-87
2020/12/22 12:25:29;;;;;;;0.10;0.00;;;15.90;90.50;;;;;;4096951;35;20125;-87
2020/12/22 12:27:56;;;;;;;0.63;0.10;;;15.80;90.50;;;;;;4128804;27;20075;-87
2020/12/22 12:30:28;;;;;;;0.00;0.00;;;15.90;90.50;;;;;;4122587;27;20432;-86
2020/12/22 12:32:54;;;;;;;0.00;0.00;;;15.90;90.50;;;;;;4125383;27;20079;-85
2020/12/22 12:35:21;;;;;;;0.00;0.00;;;15.90;90.50;;;;;;4106640;35;20079;-88
2020/12/22 12:37:47;;;;;;;0.00;0.00;;;15.90;90.40;;;;;;4105432;35;20118;-85
2020/12/22 12:40:13;;;;;;;0.00;0.00;;;16.00;90.40;;;;;;4116213;27;20083;-85
2020/12/22 12:42:40;;;;;;;0.00;0.00;;;15.90;90.40;;;;;;4117435;35;20419;-86
2020/12/22 12:45:06;;;;;;;0.00;0.00;;;15.90;90.40;;;;;;4118022;27;20071;-85
2020/12/22 12:47:32;;;;;;;0.00;0.00;;;16.00;90.50;;;;;;4093744;35;20074;-85
2020/12/22 12:49:59;;;;;;;0.10;0.00;;;15.90;90.40;;;;;;4106893;35;20083;-85
2020/12/22 12:52:25;;;;;;;0.03;0.00;;;15.90;90.50;;;;;;4106820;35;20085;-86
2020/12/22 12:54:57;;;;;;;0.20;0.00;;;15.90;90.50;;;;;;4095454;35;20082;-85
2020/12/22 12:57:24;;;;;;;0.20;0.00;;;15.90;90.50;;;;;;4103091;27;20083;-85
2020/12/22 12:59:50;;;;;;;0.00;0.00;;;15.90;90.50;;;;;;4090142;27;20126;-87
2020/12/22 13:02:23;;;;;;;0.00;0.00;;;15.90;90.50;;;;;;4119022;27;20075;-86
2020/12/22 13:08:11;;;;;;;0.10;0.00;;;15.90;90.50;;;;;;4131127;34;20074;-87
2020/12/22 13:10:38;;;;;;;0.00;0.00;;;15.90;90.60;;;;;;4120674;34;20109;-86
2020/12/22 13:13:05;;;;;;;0.17;0.00;;;15.90;90.60;;;;;;4131552;34;20083;-86
2020/12/22 13:15:31;;;;;;;0.93;0.50;;;15.80;90.60;;;;;;4121583;27;20087;-88
2020/12/22 13:18:00;;;;;;;0.30;0.10;;;15.80;90.80;;;;;;4124231;27;20098;-86
2020/12/22 13:20:27;;;;;;;6.50;0.10;;;15.80;90.70;;;;;;4121522;27;20102;-86
2020/12/22 13:22:56;;;;;;;1.45;0.57;;;15.80;90.70;;;;;;4136865;27;20082;-86
2020/12/22 13:25:26;;;;;;;0.30;0.00;;;15.80;90.60;;;;;;4129492;27;20474;-87
2020/12/22 13:27:52;;;;;;;0.52;0.00;;;15.80;90.70;;;;;;4134583;27;20070;-85
2020/12/22 13:30:18;;;;;;;0.38;0.08;;;15.80;90.70;;;;;;4132862;27;20102;-85
2020/12/22 13:32:47;;;;;;;1.45;0.40;;;15.70;90.80;;;;;;4108241;34;20074;-86
2020/12/22 13:35:13;;;;;;;0.30;0.20;;;15.70;90.80;;;;;;4126229;27;20643;-87
2020/12/22 13:37:40;;;;;;;0.93;0.10;;;15.70;90.90;;;;;;4108863;27;20078;-87
2020/12/22 13:40:06;;;;;;;0.57;0.28;;;15.70;90.90;;;;;;4118692;34;20431;-85
2020/12/22 13:42:32;;;;;;;0.77;0.20;;;15.70;90.90;;;;;;4124159;27;20075;-86
2020/12/22 13:45:08;;;;;;;0.15;0.03;;;15.60;90.90;;;;;;4109206;34;20094;-86
2020/12/22 13:47:34;;;;;;;0.20;0.00;;;15.60;90.90;;;;;;4121651;27;20071;-86
2020/12/22 13:50:00;;;;;;;0.77;0.10;;;15.60;90.90;;;;;;4140119;27;20500;-86
2020/12/22 13:52:27;;;;;;;0.55;0.25;;;15.60;90.90;;;;;;4133328;34;20079;-88
2020/12/22 13:54:53;;;;;;;1.70;0.35;;;15.60;90.90;;;;;;4135348;27;20082;-86
2020/12/22 13:57:19;;;;;;;4.15;0.70;;;15.60;90.90;;;;;;4121356;34;20071;-87
2020/12/22 13:59:46;;;;;;;1.08;0.15;;;15.60;90.90;;;;;;4132788;34;20077;-86
2020/12/22 14:02:12;;;;;;;2.47;0.43;;;15.60;90.80;;;;;;4133118;27;20440;-86
2020/12/22 14:04:39;;;;;;;0.80;0.20;;;15.70;90.90;;;;;;4118139;34;20108;-87
2020/12/22 14:07:05;;;;;;;0.60;0.35;;;15.70;90.80;;;;;;4123029;34;20066;-85
2020/12/22 14:09:34;;;;;;;0.13;0.10;;;15.70;90.80;;;;;;4130691;27;20089;-87
2020/12/22 14:12:05;;;;;;;1.30;0.25;;;15.70;91.20;;;;;;4122307;27;20082;-85
2020/12/22 14:14:31;;;;;;;0.67;0.20;;;15.60;90.80;;;;;;4121821;27;20086;-87
2020/12/22 14:16:57;;;;;;;0.00;0.00;;;15.60;90.90;;;;;;4119549;27;20082;-86
2020/12/22 14:19:24;;;;;;;0.32;0.00;;;15.60;90.90;;;;;;4132936;27;20089;-86
2020/12/22 14:22:02;;;;;;;0.50;0.20;;;15.60;90.90;;;;;;4125392;27;20239;-85
2020/12/22 14:24:28;;;;;;;0.00;0.00;;;15.60;90.90;;;;;;4121432;27;20082;-86
2020/12/22 14:27:00;;;;;;;0.38;0.00;;;15.60;90.80;;;;;;4130978;34;20070;-85
2020/12/22 14:29:27;;;;;;;0.00;0.00;;;15.60;90.80;;;;;;4135025;27;20082;-85
2020/12/22 14:31:53;;;;;;;0.20;0.00;;;15.70;90.90;;;;;;4132132;27;20059;-84
2020/12/22 14:34:19;;;;;;;0.05;0.00;;;15.70;90.80;;;;;;4134402;34;20094;-84
2020/12/22 14:36:46;;;;;;;0.30;0.20;;;15.70;90.80;;;;;;4131230;34;20376;-84